Merna, IL (61758)

8:51 AM CDT on April 27, 2017 (GMT -0500)
Sapphire Lake | | Change Station

Elev 820 ft 40.50 °N, 88.91 °W | Updated 2 minutes ago

Overcast
Overcast
44.0 °F
Feels Like 41 °F
N
5.1
Wind Variable Wind from NW

Today
High -- | Low -- °F
--% Chance of Precip.
Yesterday
High -- | Low -- °F
Precip. -- in
Pressure 29.66 in
Visibility 10.0 miles
Clouds Overcast 900 ft
Windchill 41 °F
Dew Point 39 °F
Humidity 83%
Rainfall 0.71 in
Snow Depth Not available.
5:59 AM 7:47 PM
New Moon, 2% visible
METAR KBMI 271256Z 26013G22KT 10SM OVC009 06/04 A2958 RMK AO2 CIG 008V013 SLP043 T00610044
Pressure 29.66 in
Visibility 10.0 miles
Clouds Overcast 900 ft
Windchill 41 °F
Dew Point 39 °F
Humidity 83%
Rainfall 0.71 in
Snow Depth Not available.
5:59 AM 7:47 PM
New Moon, 2% visible
METAR KBMI 271256Z 26013G22KT 10SM OVC009 06/04 A2958 RMK AO2 CIG 008V013 SLP043 T00610044

Get Severe Weather Alerts

Thanks for signing up!

Be on the lookout for a verification email in your inbox.

You'll start receiving the daily forecast at 8 AM.

×

10-Day Weather Forecast

Almanac

Astronomy

Apr. 27, 2017 Rise Set
Actual Time
Civil Twilight
Nautical Twilight
Astronomical Twilight
Moon
Length of Visible Light
Length of Day
Tomorrow will be .
, % of the Moon is Illuminated

Today's Extremes

State Highs State Lows

Community

WunderPhotos

WunderBlog® & News

Nearby

Air Quality

  Air Quality AQ Index Pollutant
Not available.

Snow Depth

Station Depth Elevation

Earthquake Activity

City Distance Mag. Time & Date
Minimum magnitude displayed is 2.5.

Coastal Water Temperatures

Place Temperature

Stations

Nearby Weather Stations

Station Location Temp. Windchill Dew Point Humidity Wind Precip. Elev Updated Type
                   

Watches & Warnings

There are currently no watches in effect.